createdAt,value
2022-12-04T00:00:43.718Z,16.50
2022-12-04T00:03:10.444Z,16.50
2022-12-04T00:05:37.274Z,16.60
2022-12-04T00:08:04.152Z,16.50
2022-12-04T00:10:30.754Z,16.50
2022-12-04T00:12:58.691Z,16.60
2022-12-04T00:15:26.414Z,16.50
2022-12-04T00:17:53.506Z,16.50
2022-12-04T00:20:20.151Z,16.40
2022-12-04T00:22:46.914Z,16.50
2022-12-04T00:25:13.593Z,16.40
2022-12-04T00:27:40.265Z,16.50
2022-12-04T00:30:07.157Z,16.50
2022-12-04T00:32:33.732Z,16.40
2022-12-04T00:35:00.389Z,16.50
2022-12-04T00:37:26.994Z,16.50
2022-12-04T00:39:54.062Z,16.40
2022-12-04T00:42:20.887Z,16.40
2022-12-04T00:44:47.492Z,16.20
2022-12-04T00:47:14.118Z,16.40
2022-12-04T00:49:40.750Z,16.60
2022-12-04T00:52:07.527Z,16.50
2022-12-04T00:54:34.270Z,16.50
2022-12-04T00:57:00.943Z,16.50
2022-12-04T00:59:27.564Z,16.60
2022-12-04T01:01:54.183Z,16.50
2022-12-04T01:04:21.001Z,16.50
2022-12-04T01:06:47.751Z,16.50
2022-12-04T01:09:14.536Z,16.50
2022-12-04T01:11:41.268Z,16.50
2022-12-04T01:14:07.955Z,16.50
2022-12-04T01:16:38.792Z,16.40
2022-12-04T01:19:06.726Z,16.40
2022-12-04T01:21:33.560Z,16.50
2022-12-04T01:24:00.332Z,16.50
2022-12-04T01:26:27.237Z,16.60
2022-12-04T01:28:53.851Z,16.60
2022-12-04T01:31:21.219Z,16.50
2022-12-04T01:33:48.402Z,16.50
2022-12-04T01:36:16.370Z,16.60
2022-12-04T01:38:43.441Z,16.60
2022-12-04T01:41:13.483Z,16.50
2022-12-04T01:43:42.615Z,16.30
2022-12-04T01:46:09.587Z,16.50
2022-12-04T01:48:38.930Z,16.50
2022-12-04T01:51:11.281Z,16.50
2022-12-04T01:53:40.210Z,16.50
2022-12-04T01:56:07.092Z,16.50
2022-12-04T01:58:36.217Z,16.40
2022-12-04T02:01:08.434Z,16.40
2022-12-04T02:03:36.636Z,16.40
2022-12-04T02:06:03.675Z,16.70
2022-12-04T02:08:30.624Z,16.50
2022-12-04T02:11:16.213Z,16.40
2022-12-04T02:13:53.622Z,16.40
2022-12-04T02:16:25.740Z,16.50
2022-12-04T02:18:59.045Z,16.50
2022-12-04T02:21:38.753Z,16.50
2022-12-04T02:24:24.041Z,16.60
2022-12-04T02:26:56.570Z,16.50
2022-12-04T02:29:41.909Z,16.60
2022-12-04T02:32:26.872Z,16.60
2022-12-04T02:35:03.144Z,16.60
2022-12-04T02:37:29.727Z,16.50
2022-12-04T02:40:02.158Z,16.50
2022-12-04T02:42:28.908Z,16.60
2022-12-04T02:44:57.042Z,16.50
2022-12-04T02:47:24.626Z,16.50
2022-12-04T02:49:59.550Z,16.50
2022-12-04T02:52:30.266Z,16.50
2022-12-04T02:54:58.645Z,16.60
2022-12-04T02:57:27.975Z,16.60
2022-12-04T02:59:56.582Z,16.40
2022-12-04T03:02:27.659Z,16.40
2022-12-04T03:04:55.565Z,16.40
2022-12-04T03:07:30.494Z,16.50
2022-12-04T03:10:03.112Z,16.50
2022-12-04T03:12:36.010Z,16.60
2022-12-04T03:15:05.449Z,16.80
2022-12-04T03:17:37.669Z,16.60
2022-12-04T03:20:35.567Z,16.60
2022-12-04T03:23:09.067Z,16.60
2022-12-04T03:25:38.297Z,16.60
2022-12-04T03:28:08.426Z,16.50
2022-12-04T03:30:47.026Z,16.50
2022-12-04T03:33:16.593Z,16.50
2022-12-04T03:35:43.145Z,16.50
2022-12-04T03:38:25.696Z,16.50
2022-12-04T03:40:54.994Z,16.50
2022-12-04T03:43:24.685Z,16.50
2022-12-04T03:45:54.439Z,16.50
2022-12-04T03:48:27.988Z,16.50
2022-12-04T03:51:00.228Z,16.50
2022-12-04T03:53:45.783Z,16.30
2022-12-04T03:56:20.346Z,16.30
2022-12-04T03:58:48.665Z,16.50
2022-12-04T04:01:17.154Z,16.50
2022-12-04T04:03:46.574Z,16.70
2022-12-04T04:06:16.237Z,16.60
2022-12-04T04:08:45.532Z,16.70
2022-12-04T04:11:14.828Z,16.50
2022-12-04T04:14:04.865Z,16.50
2022-12-04T04:16:52.027Z,16.50
2022-12-04T04:19:38.140Z,16.40
2022-12-04T04:22:25.901Z,16.50
2022-12-04T04:24:57.124Z,16.50
2022-12-04T04:27:23.719Z,16.70
2022-12-04T04:29:52.724Z,16.50
2022-12-04T04:32:19.578Z,16.50
2022-12-04T04:34:46.263Z,16.50
2022-12-04T04:37:22.104Z,16.70
2022-12-04T04:39:53.480Z,16.50
2022-12-04T04:42:49.785Z,16.50
2022-12-04T04:45:20.485Z,16.50
2022-12-04T04:47:53.231Z,16.70
2022-12-04T04:50:20.460Z,16.50
2022-12-04T04:52:48.269Z,16.40
2022-12-04T04:55:16.698Z,16.50
2022-12-04T04:57:43.264Z,16.50
2022-12-04T05:00:17.651Z,16.50
2022-12-04T05:02:44.700Z,16.50
2022-12-04T05:05:12.473Z,16.40
2022-12-04T05:07:39.168Z,16.40
2022-12-04T05:10:06.231Z,16.40
2022-12-04T05:12:32.825Z,16.40
2022-12-04T05:14:59.443Z,16.40
2022-12-04T05:17:26.035Z,16.40
2022-12-04T05:19:59.001Z,16.40
2022-12-04T05:22:28.778Z,16.40
2022-12-04T05:24:55.375Z,16.40
2022-12-04T05:27:22.662Z,16.40
2022-12-04T05:29:49.295Z,16.40
2022-12-04T05:32:15.923Z,16.30
2022-12-04T05:34:42.867Z,16.40
2022-12-04T05:37:09.585Z,16.40
2022-12-04T05:39:36.172Z,16.40
2022-12-04T05:42:02.765Z,16.40
2022-12-04T05:44:29.434Z,16.30
2022-12-04T05:46:56.075Z,16.30
2022-12-04T05:49:22.778Z,16.30
2022-12-04T05:51:49.881Z,16.50
2022-12-04T05:54:16.680Z,16.30
2022-12-04T05:56:43.243Z,16.40
2022-12-04T05:59:09.883Z,16.50
2022-12-04T06:01:36.766Z,16.50
2022-12-04T06:04:03.588Z,16.50
2022-12-04T06:06:30.338Z,16.50
2022-12-04T06:08:58.237Z,16.40
2022-12-04T06:11:26.461Z,16.50
2022-12-04T06:13:53.284Z,16.50
2022-12-04T06:16:22.104Z,16.40
2022-12-04T06:18:52.983Z,16.40
2022-12-04T06:21:20.686Z,16.40
2022-12-04T06:23:47.312Z,16.50
2022-12-04T06:26:14.229Z,16.50
2022-12-04T06:28:41.232Z,16.40
2022-12-04T06:31:09.121Z,16.40
2022-12-04T06:33:36.096Z,16.40
2022-12-04T06:36:07.108Z,16.30
2022-12-04T06:38:34.226Z,16.40
2022-12-04T06:41:03.978Z,16.40
2022-12-04T06:43:30.641Z,16.40
2022-12-04T06:46:04.836Z,16.40
2022-12-04T06:48:31.862Z,16.50
2022-12-04T06:50:59.424Z,16.40
2022-12-04T06:53:27.742Z,16.40
2022-12-04T06:55:54.913Z,16.50
2022-12-04T06:58:21.544Z,16.40
2022-12-04T07:00:48.262Z,16.30
2022-12-04T07:03:14.918Z,16.30
2022-12-04T07:05:41.542Z,16.40
2022-12-04T07:08:08.540Z,16.30
2022-12-04T07:10:38.763Z,16.40
2022-12-04T07:13:06.074Z,16.40
2022-12-04T07:15:34.029Z,16.30
2022-12-04T07:18:00.769Z,16.30
2022-12-04T07:20:28.036Z,16.30
2022-12-04T07:22:54.599Z,16.30
2022-12-04T07:25:21.342Z,16.50
2022-12-04T07:27:48.135Z,16.40
2022-12-04T07:30:15.953Z,16.30
2022-12-04T07:32:42.870Z,16.40
2022-12-04T07:35:09.570Z,16.30
2022-12-04T07:37:36.480Z,16.30
2022-12-04T07:40:04.210Z,16.30
2022-12-04T07:42:30.925Z,16.40
2022-12-04T07:44:57.739Z,16.30
2022-12-04T07:47:24.528Z,16.40
2022-12-04T07:49:51.097Z,16.30
2022-12-04T07:52:17.789Z,16.40
2022-12-04T07:54:44.396Z,16.30
2022-12-04T07:57:11.071Z,16.30
2022-12-04T07:59:37.669Z,16.30
2022-12-04T08:02:05.709Z,16.30
2022-12-04T08:04:32.579Z,16.40
2022-12-04T08:06:59.314Z,16.50
2022-12-04T08:09:25.964Z,16.30
2022-12-04T08:11:52.785Z,16.30
2022-12-04T08:14:19.459Z,16.30
2022-12-04T08:16:52.583Z,16.30
2022-12-04T08:19:19.804Z,16.30
2022-12-04T08:21:46.388Z,16.30
2022-12-04T08:24:12.958Z,16.30
2022-12-04T08:26:39.565Z,16.30
2022-12-04T08:29:06.641Z,16.30
2022-12-04T08:31:34.215Z,16.30
2022-12-04T08:34:02.728Z,16.30
2022-12-04T08:36:29.489Z,16.30
2022-12-04T08:38:56.318Z,16.30
2022-12-04T08:41:24.328Z,16.40
2022-12-04T08:43:51.488Z,16.40
2022-12-04T08:46:18.722Z,16.40
2022-12-04T08:48:45.778Z,16.50
2022-12-04T08:51:19.173Z,16.60
2022-12-04T08:53:46.006Z,16.60
2022-12-04T08:56:12.883Z,16.50
2022-12-04T08:58:39.671Z,16.60
2022-12-04T09:01:13.965Z,16.50
2022-12-04T09:03:41.454Z,16.50
2022-12-04T09:06:09.344Z,16.50
2022-12-04T09:08:36.215Z,16.60
2022-12-04T09:11:06.489Z,16.70
2022-12-04T09:13:33.301Z,16.60
2022-12-04T09:16:04.072Z,16.80
2022-12-04T09:18:35.612Z,16.90
2022-12-04T09:21:04.708Z,16.80
2022-12-04T09:23:31.386Z,16.70
2022-12-04T09:25:58.033Z,16.70
2022-12-04T09:28:24.670Z,16.70
2022-12-04T09:30:57.913Z,16.70
2022-12-04T09:33:24.850Z,16.80
2022-12-04T09:35:51.610Z,16.70
2022-12-04T09:38:18.309Z,16.70
2022-12-04T09:40:52.303Z,16.70
2022-12-04T09:43:27.778Z,16.70
2022-12-04T09:45:55.776Z,16.70
2022-12-04T09:48:26.247Z,16.70
2022-12-04T09:50:53.590Z,16.70
2022-12-04T09:53:22.569Z,16.80
2022-12-04T09:56:23.561Z,16.90
2022-12-04T09:58:53.547Z,16.70
2022-12-04T10:01:28.446Z,16.70
2022-12-04T10:03:59.864Z,16.70
2022-12-04T10:06:36.219Z,16.70
2022-12-04T10:09:29.189Z,16.60
2022-12-04T10:12:08.306Z,16.60
2022-12-04T10:14:45.781Z,16.60
2022-12-04T10:17:18.396Z,16.70
2022-12-04T10:19:59.496Z,16.70
2022-12-04T10:22:30.550Z,16.70
2022-12-04T10:25:07.003Z,16.70
2022-12-04T10:27:39.734Z,16.80
2022-12-04T10:30:20.920Z,16.70
2022-12-04T10:32:48.829Z,16.80
2022-12-04T10:35:20.880Z,16.80
2022-12-04T10:37:56.893Z,16.70
2022-12-04T10:40:28.153Z,16.80
2022-12-04T10:43:01.026Z,16.80
2022-12-04T10:45:27.856Z,16.70
2022-12-04T10:47:54.469Z,16.80
2022-12-04T10:50:22.889Z,16.70
2022-12-04T10:52:51.663Z,16.80
2022-12-04T10:55:29.196Z,16.70
2022-12-04T10:57:55.833Z,16.70
2022-12-04T11:00:24.257Z,17.10
2022-12-04T11:02:54.379Z,16.80
2022-12-04T11:05:28.467Z,16.70
2022-12-04T11:07:56.205Z,16.70
2022-12-04T11:10:31.864Z,16.70
2022-12-04T11:13:00.042Z,16.80
2022-12-04T11:15:26.781Z,16.70
2022-12-04T11:17:53.675Z,16.60
2022-12-04T11:20:28.025Z,16.60
2022-12-04T11:22:58.540Z,16.60
2022-12-04T11:25:31.773Z,16.60
2022-12-04T11:27:59.912Z,16.60
2022-12-04T11:30:32.510Z,16.60
2022-12-04T11:32:59.622Z,16.50
2022-12-04T11:35:28.388Z,16.50
2022-12-04T11:37:58.134Z,16.60
2022-12-04T11:40:25.954Z,16.50
2022-12-04T11:43:18.949Z,16.50
2022-12-04T11:45:58.990Z,16.50
2022-12-04T11:48:26.160Z,16.50
2022-12-04T11:51:12.068Z,16.60
2022-12-04T11:53:44.222Z,16.50
2022-12-04T11:56:18.102Z,16.50
2022-12-04T11:58:59.733Z,16.50
2022-12-04T12:01:59.115Z,16.50
2022-12-04T12:04:31.969Z,16.50
2022-12-04T12:07:01.350Z,16.50
2022-12-04T12:09:30.964Z,16.50
2022-12-04T12:12:20.923Z,16.50
2022-12-04T12:14:59.760Z,16.50
2022-12-04T12:17:32.344Z,16.40
2022-12-04T12:19:59.199Z,16.40
2022-12-04T12:22:39.241Z,16.50
2022-12-04T12:25:16.221Z,16.50
2022-12-04T12:27:45.812Z,16.40
2022-12-04T12:30:16.037Z,16.40
2022-12-04T12:32:54.929Z,16.50
2022-12-04T12:35:28.634Z,16.50
2022-12-04T12:38:03.652Z,16.50
2022-12-04T12:40:39.405Z,16.50
2022-12-04T12:43:07.560Z,16.40
2022-12-04T12:45:46.107Z,16.40
2022-12-04T12:48:28.821Z,16.40
2022-12-04T12:51:22.172Z,16.50
2022-12-04T12:53:47.994Z,16.40
2022-12-04T12:56:15.921Z,16.50
2022-12-04T12:58:42.619Z,16.40
2022-12-04T13:01:15.262Z,16.30
2022-12-04T13:03:59.987Z,16.40
2022-12-04T13:06:37.933Z,16.40
2022-12-04T13:09:31.654Z,16.40
2022-12-04T13:12:24.824Z,16.20
2022-12-04T13:14:51.460Z,16.40
2022-12-04T13:17:23.292Z,16.30
2022-12-04T13:19:55.112Z,16.30
2022-12-04T13:22:38.032Z,16.40
2022-12-04T13:25:23.332Z,16.40
2022-12-04T13:28:06.505Z,16.50
2022-12-04T13:30:39.209Z,16.40
2022-12-04T13:33:20.984Z,16.40
2022-12-04T13:35:58.837Z,16.40
2022-12-04T13:38:28.612Z,16.30
2022-12-04T13:40:56.862Z,16.40
2022-12-04T13:43:37.084Z,16.30
2022-12-04T13:46:30.094Z,16.40
2022-12-04T13:49:15.476Z,16.40
2022-12-04T13:51:42.851Z,16.40
2022-12-04T13:54:12.394Z,16.40
2022-12-04T13:56:43.278Z,16.40
2022-12-04T13:59:23.757Z,16.30
2022-12-04T14:01:51.704Z,16.30
2022-12-04T14:04:32.164Z,16.40
2022-12-04T14:07:00.028Z,16.40
2022-12-04T14:09:28.266Z,16.40
2022-12-04T14:12:00.287Z,16.50
2022-12-04T14:14:29.104Z,16.30
2022-12-04T14:16:57.104Z,16.40
2022-12-04T14:19:34.626Z,16.40
2022-12-04T14:22:01.788Z,16.40
2022-12-04T14:24:36.103Z,16.60
2022-12-04T14:27:22.718Z,16.40
2022-12-04T14:29:54.552Z,16.40
2022-12-04T14:32:30.650Z,16.30
2022-12-04T14:34:59.986Z,16.20
2022-12-04T14:37:36.025Z,16.30
2022-12-04T14:40:04.122Z,16.40
2022-12-04T14:42:39.225Z,16.40
2022-12-04T14:45:18.284Z,16.30
2022-12-04T14:47:48.076Z,16.30
2022-12-04T14:50:33.702Z,16.40
2022-12-04T14:53:09.930Z,16.50
2022-12-04T14:55:45.830Z,16.50
2022-12-04T14:58:29.735Z,16.50
2022-12-04T15:01:01.895Z,16.50
2022-12-04T15:03:32.642Z,16.30
2022-12-04T15:06:22.790Z,16.40
2022-12-04T15:08:53.970Z,16.50
2022-12-04T15:11:39.959Z,16.40
2022-12-04T15:14:15.566Z,16.30
2022-12-04T15:16:43.348Z,16.40
2022-12-04T15:19:17.265Z,16.40
2022-12-04T15:21:44.480Z,16.40
2022-12-04T15:24:12.101Z,16.50
2022-12-04T15:26:39.576Z,16.40
2022-12-04T15:29:07.587Z,16.50
2022-12-04T15:31:36.761Z,16.50
2022-12-04T15:34:08.026Z,16.50
2022-12-04T15:36:35.003Z,16.40
2022-12-04T15:39:08.404Z,16.50
2022-12-04T15:41:39.617Z,16.40
2022-12-04T15:44:31.542Z,16.50
2022-12-04T15:47:02.213Z,16.40
2022-12-04T15:49:30.325Z,16.40
2022-12-04T15:52:07.398Z,16.40
2022-12-04T15:54:36.681Z,16.40
2022-12-04T15:57:05.889Z,16.40
2022-12-04T15:59:34.912Z,16.40
2022-12-04T16:02:21.849Z,16.40
2022-12-04T16:04:49.042Z,16.40
2022-12-04T16:07:22.593Z,16.40
2022-12-04T16:09:51.495Z,16.40
2022-12-04T16:12:20.330Z,16.40
2022-12-04T16:14:47.412Z,16.40
2022-12-04T16:17:14.306Z,16.50
2022-12-04T16:19:42.031Z,16.50
2022-12-04T16:22:20.633Z,16.40
2022-12-04T16:24:47.617Z,16.50
2022-12-04T16:27:15.852Z,16.50
2022-12-04T16:29:45.689Z,16.50
2022-12-04T16:32:13.144Z,16.50
2022-12-04T16:34:40.349Z,16.50
2022-12-04T16:37:13.562Z,16.50
2022-12-04T16:39:41.588Z,16.40
2022-12-04T16:42:34.986Z,16.40
2022-12-04T16:45:01.596Z,16.50
2022-12-04T16:47:28.366Z,16.40
2022-12-04T16:49:54.924Z,16.50
2022-12-04T16:52:21.592Z,16.40
2022-12-04T16:54:48.304Z,16.40
2022-12-04T16:57:14.947Z,16.30
2022-12-04T16:59:42.406Z,16.40
2022-12-04T17:02:15.366Z,16.40
2022-12-04T17:04:42.128Z,16.40
2022-12-04T17:07:08.932Z,16.50
2022-12-04T17:09:35.596Z,16.50
2022-12-04T17:12:02.158Z,16.50
2022-12-04T17:14:28.752Z,16.40
2022-12-04T17:16:56.397Z,16.40
2022-12-04T17:19:23.124Z,16.60
2022-12-04T17:21:49.993Z,16.40
2022-12-04T17:24:16.574Z,16.30
2022-12-04T17:26:43.249Z,16.30
2022-12-04T17:29:27.338Z,16.40
2022-12-04T17:31:58.336Z,16.50
2022-12-04T17:34:32.033Z,16.50
2022-12-04T17:36:58.740Z,16.50
2022-12-04T17:39:25.297Z,16.60
2022-12-04T17:41:51.915Z,16.50
2022-12-04T17:44:18.491Z,16.50
2022-12-04T17:46:45.581Z,16.50
2022-12-04T17:49:12.209Z,16.60
2022-12-04T17:51:38.877Z,16.60
2022-12-04T17:54:06.007Z,16.60
2022-12-04T17:56:32.614Z,16.50
2022-12-04T17:58:59.265Z,16.70
2022-12-04T18:01:27.475Z,16.60
2022-12-04T18:03:57.931Z,16.60
2022-12-04T18:06:33.060Z,16.50
2022-12-04T18:09:03.000Z,16.60
2022-12-04T18:11:30.371Z,16.60
2022-12-04T18:13:58.271Z,16.50
2022-12-04T18:16:25.432Z,16.50
2022-12-04T18:18:55.597Z,16.50
2022-12-04T18:21:22.779Z,16.50
2022-12-04T18:23:49.596Z,16.50
2022-12-04T18:26:17.859Z,16.50
2022-12-04T18:28:44.903Z,16.50
2022-12-04T18:31:11.576Z,16.50
2022-12-04T18:33:39.043Z,16.40
2022-12-04T18:36:08.618Z,16.40
2022-12-04T18:38:35.418Z,16.40
2022-12-04T18:41:03.288Z,16.50
2022-12-04T18:43:32.628Z,16.50
2022-12-04T18:46:04.186Z,16.50
2022-12-04T18:48:34.215Z,16.50
2022-12-04T18:51:01.056Z,16.60
2022-12-04T18:53:27.662Z,16.60
2022-12-04T18:55:55.383Z,16.60
2022-12-04T18:58:22.948Z,16.70
2022-12-04T19:00:51.593Z,16.80
2022-12-04T19:03:18.429Z,16.80
2022-12-04T19:05:49.429Z,17.10
2022-12-04T19:08:16.380Z,16.90
2022-12-04T19:10:43.047Z,17.00
2022-12-04T19:13:09.629Z,16.90
2022-12-04T19:15:40.938Z,16.90
2022-12-04T19:18:07.570Z,16.90
2022-12-04T19:20:34.120Z,16.90
2022-12-04T19:23:00.736Z,16.80
2022-12-04T19:25:27.267Z,16.70
2022-12-04T19:27:53.840Z,16.60
2022-12-04T19:30:20.600Z,16.60
2022-12-04T19:32:47.213Z,16.70
2022-12-04T19:35:13.887Z,16.60
2022-12-04T19:40:32.948Z,16.50
2022-12-04T19:43:02.982Z,16.70
2022-12-04T19:45:29.949Z,16.60
2022-12-04T19:47:58.271Z,16.70
2022-12-04T19:50:24.846Z,16.60
2022-12-04T19:52:51.431Z,16.70
2022-12-04T19:55:17.997Z,16.50
2022-12-04T19:57:44.651Z,16.60
2022-12-04T20:00:11.419Z,16.50
2022-12-04T20:02:38.671Z,16.50
2022-12-04T20:05:05.491Z,16.50
2022-12-04T20:07:32.125Z,16.50
2022-12-04T20:09:58.843Z,16.50
2022-12-04T20:12:25.670Z,16.50
2022-12-04T20:14:52.235Z,16.40
2022-12-04T20:17:18.848Z,16.40
2022-12-04T20:19:45.406Z,16.50
2022-12-04T20:22:12.041Z,16.50
2022-12-04T20:24:38.708Z,16.40
2022-12-04T20:27:05.421Z,16.50
2022-12-04T20:29:32.013Z,16.50
2022-12-04T20:31:58.629Z,16.60
2022-12-04T20:34:25.252Z,16.50
2022-12-04T20:36:51.892Z,16.50
2022-12-04T20:39:28.915Z,16.50
2022-12-04T20:41:55.618Z,16.60
2022-12-04T20:44:22.282Z,16.50
2022-12-04T20:46:49.780Z,16.50
2022-12-04T20:49:21.560Z,16.50
2022-12-04T20:51:49.489Z,16.50
2022-12-04T20:54:18.498Z,16.50
2022-12-04T20:56:45.963Z,16.50
2022-12-04T20:59:13.453Z,16.50
2022-12-04T21:01:40.652Z,16.50
2022-12-04T21:04:07.880Z,16.40
2022-12-04T21:06:38.271Z,16.40
2022-12-04T21:09:11.155Z,16.50
2022-12-04T21:11:38.922Z,16.50
2022-12-04T21:14:25.333Z,16.50
2022-12-04T21:16:52.308Z,16.50
2022-12-04T21:19:20.457Z,16.40
2022-12-04T21:21:47.117Z,16.40
2022-12-04T21:24:14.828Z,16.40
2022-12-04T21:26:41.395Z,16.50
2022-12-04T21:29:08.169Z,16.40
2022-12-04T21:31:35.419Z,16.50
2022-12-04T21:34:02.740Z,16.40
2022-12-04T21:36:29.410Z,16.50
2022-12-04T21:38:56.270Z,16.50
2022-12-04T21:41:41.970Z,16.60
2022-12-04T21:44:12.516Z,16.50
2022-12-04T21:46:39.287Z,16.40
2022-12-04T21:49:08.125Z,16.50
2022-12-04T21:51:56.914Z,16.40
2022-12-04T21:54:24.600Z,16.40
2022-12-04T21:56:51.183Z,16.50
2022-12-04T21:59:17.837Z,16.40
2022-12-04T22:01:44.485Z,16.40
2022-12-04T22:04:11.135Z,16.40
2022-12-04T22:06:37.886Z,16.40
2022-12-04T22:09:06.631Z,16.40
2022-12-04T22:11:33.694Z,16.60
2022-12-04T22:14:00.524Z,16.40
2022-12-04T22:16:30.613Z,16.40
2022-12-04T22:18:58.269Z,16.30
2022-12-04T22:21:25.138Z,16.40
2022-12-04T22:23:58.879Z,16.40
2022-12-04T22:26:26.445Z,16.40
2022-12-04T22:28:53.087Z,16.40
2022-12-04T22:31:20.954Z,16.50
2022-12-04T22:33:48.604Z,16.50
2022-12-04T22:36:17.309Z,16.40
2022-12-04T22:39:06.014Z,16.50
2022-12-04T22:41:31.138Z,16.50
2022-12-04T22:43:57.747Z,16.50
2022-12-04T22:46:24.438Z,16.50
2022-12-04T22:48:51.190Z,16.50
2022-12-04T22:51:19.069Z,16.50
2022-12-04T22:53:46.811Z,16.60
2022-12-04T22:56:14.912Z,16.50
2022-12-04T22:58:42.099Z,16.60
2022-12-04T23:01:09.636Z,16.60
2022-12-04T23:03:36.281Z,16.50
2022-12-04T23:06:03.382Z,16.50
2022-12-04T23:08:29.933Z,16.60
2022-12-04T23:10:56.517Z,16.50
2022-12-04T23:13:23.087Z,16.50
2022-12-04T23:15:50.042Z,16.60
2022-12-04T23:18:16.672Z,16.60
2022-12-04T23:20:43.242Z,16.50
2022-12-04T23:23:09.805Z,16.50
2022-12-04T23:25:42.880Z,16.50
2022-12-04T23:28:09.589Z,16.50
2022-12-04T23:30:36.840Z,16.50
2022-12-04T23:33:03.512Z,16.60
2022-12-04T23:35:30.068Z,16.50
2022-12-04T23:37:56.632Z,16.70
2022-12-04T23:40:23.227Z,16.50
2022-12-04T23:42:49.844Z,16.50
2022-12-04T23:45:16.466Z,16.60
2022-12-04T23:47:43.514Z,16.60
2022-12-04T23:50:10.398Z,16.50
2022-12-04T23:52:37.080Z,16.60
2022-12-04T23:55:03.839Z,16.60
2022-12-04T23:57:30.496Z,16.60
2022-12-04T23:59:57.409Z,16.60
